Dianna Rose — WEC4621 — position and weather

sailwx.info

Track history (hours):
 
Tides and Currents Weather Stations Pressure Air Temp Water Temp Dewpoint Dewpoint Depression Visibility Wind Speed Wind Dir Waves Ship Positions

Dianna Rose

Last reported at 2017-Oct-20 17:37 UTC. Time now 2017-Nov-22 01:47 UTC.
Position N 16°49' W 062°21'.
Warning: this ship's position is 32 days out of date.

Length 17 m.

MMSI: 378111924.

Date/timePositionNaut miles runAvg speedWind from/ knotsBaromVisibWave heightAir tempDewpointWater temp
2017-Oct-20 17:37N 16°49' W 062°21'1 7.0
2017-Oct-20 17:30N 16°48' W 062°20'4 7.7
2017-Oct-20 17:00N 16°45' W 062°17'17 6.7
2017-Oct-20 14:28N 16°34' W 062°05'7 7.4
2017-Oct-20 13:30N 16°29' W 061°59'4 7.3
2017-Oct-20 12:59N 16°26' W 061°56'  
2017-Oct-15 15:07N 14°27' W 061°05'1 8.0
2017-Oct-15 15:00N 14°27' W 061°04'8 8.1
2017-Oct-15 14:00N 14°27' W 060°56'2 0.1
2017-Oct-13 20:15N 14°26' W 060°53'0 0.0
2017-Oct-13 20:00N 14°26' W 060°53'1 1.7
2017-Oct-13 19:30N 14°27' W 060°53'1 2.9
2017-Oct-13 18:59N 14°28' W 060°53'0 0.0
2017-Oct-13 18:23N 14°28' W 060°53'0 0.0
2017-Oct-13 17:56N 14°28' W 060°53'0 0.0
2017-Oct-13 17:29N 14°28' W 060°53'0 0.0
2017-Oct-13 16:47N 14°28' W 060°53'0 0.1
2017-Oct-13 16:24N 14°28' W 060°53'0 0.4
2017-Oct-13 15:54N 14°28' W 060°53'2 4.5
2017-Oct-13 15:30N 14°27' W 060°54'3 0.1
2017-Oct-12 15:42N 14°24' W 060°55'2 7.5
2017-Oct-12 15:30N 14°22' W 060°56'  
Track history (hours):
 
Tides and Currents Weather Stations Pressure Air Temp Water Temp Dewpoint Dewpoint Depression Visibility Wind Speed Wind Dir Waves Ship Positions

Dianna Rose

Last reported at 2017-Oct-20 17:37 UTC. Time now 2017-Nov-22 01:47 UTC.
Position N 16°49' W 062°21'.
Warning: this ship's position is 32 days out of date.

Length 17 m.

MMSI: 378111924.

Date/timePositionNaut miles runAvg speedWind from/ knotsBaromVisibWave heightAir tempDewpointWater temp
2017-Oct-20 17:37N 16°49' W 062°21'1 7.0
2017-Oct-20 17:30N 16°48' W 062°20'4 7.7
2017-Oct-20 17:00N 16°45' W 062°17'17 6.7
2017-Oct-20 14:28N 16°34' W 062°05'7 7.4
2017-Oct-20 13:30N 16°29' W 061°59'4 7.3
2017-Oct-20 12:59N 16°26' W 061°56'  
2017-Oct-15 15:07N 14°27' W 061°05'1 8.0
2017-Oct-15 15:00N 14°27' W 061°04'8 8.1
2017-Oct-15 14:00N 14°27' W 060°56'2 0.1
2017-Oct-13 20:15N 14°26' W 060°53'0 0.0
2017-Oct-13 20:00N 14°26' W 060°53'1 1.7
2017-Oct-13 19:30N 14°27' W 060°53'1 2.9
2017-Oct-13 18:59N 14°28' W 060°53'0 0.0
2017-Oct-13 18:23N 14°28' W 060°53'0 0.0
2017-Oct-13 17:56N 14°28' W 060°53'0 0.0
2017-Oct-13 17:29N 14°28' W 060°53'0 0.0
2017-Oct-13 16:47N 14°28' W 060°53'0 0.1
2017-Oct-13 16:24N 14°28' W 060°53'0 0.4
2017-Oct-13 15:54N 14°28' W 060°53'2 4.5
2017-Oct-13 15:30N 14°27' W 060°54'3 0.1
2017-Oct-12 15:42N 14°24' W 060°55'2 7.5
2017-Oct-12 15:30N 14°22' W 060°56'  

Dump ship's entire track history